Time;durP1;ratioP1;P1;durP2;ratioP2;P2;SDS_P1;SDS_P2;PMS_P1;PMS_P2;Temp;Humidity;BMP_temperature;BMP_pressure;BME280_temperature;BME280_humidity;BME280_pressure;Samples;Min_cycle;Max_cycle;Signal;HPM_P1;HPM_P2
2021/04/23 00:01:04;;;;;;;;;;;;;;;6.31;60.36;102835.28;5048906;28;19972;-71
2021/04/23 00:03:42;;;;;;;;;;;;;;;6.30;60.14;102841.41;5058988;28;19928;-71
2021/04/23 00:06:19;;;;;;;;;;;;;;;6.24;59.80;102839.09;5050317;28;20009;-71
2021/04/23 00:08:47;;;;;;;;;;;;;;;6.17;60.25;102838.50;5052965;28;20633;-71
2021/04/23 00:11:15;;;;;;;;;;;;;;;6.12;60.76;102851.75;5051284;28;19975;-71
2021/04/23 00:13:41;;;;;;;;;;;;;;;6.06;60.99;102846.81;5046121;28;20441;-72
2021/04/23 00:16:08;;;;;;;;;;;;;;;6.05;60.66;102852.91;5048265;28;19936;-76
2021/04/23 00:18:35;;;;;;;;;;;;;;;5.97;60.55;102839.38;5061222;28;19976;-71
2021/04/23 00:21:01;;;;;;;;;;;;;;;5.91;61.21;102844.84;5049132;28;19959;-72
2021/04/23 00:23:27;;;;;;;;;;;;;;;5.88;60.92;102850.16;5061627;28;20414;-71
2021/04/23 00:25:53;;;;;;;;;;;;;;;5.81;61.79;102846.16;5049858;28;19956;-71
2021/04/23 00:28:19;;;;;;;;;;;;;;;5.75;62.04;102845.50;5057282;28;20328;-71
2021/04/23 00:30:47;;;;;;;;;;;;;;;5.70;62.11;102841.38;5050017;28;20651;-71
2021/04/23 00:33:13;;;;;;;;;;;;;;;5.63;62.38;102840.81;5062203;28;19928;-72
2021/04/23 00:35:41;;;;;;;;;;;;;;;5.63;61.80;102842.56;5051640;28;19932;-71
2021/04/23 00:38:09;;;;;;;;;;;;;;;5.57;63.04;102848.88;5057407;28;20010;-71
2021/04/23 00:40:37;;;;;;;;;;;;;;;5.54;62.02;102852.44;5045875;28;20686;-71
2021/04/23 00:43:04;;;;;;;;;;;;;;;5.49;62.31;102848.38;5051378;28;19982;-71
2021/04/23 00:45:30;;;;;;;;;;;;;;;5.48;62.08;102849.25;5047404;28;19929;-71
2021/04/23 00:47:58;;;;;;;;;;;;;;;5.45;62.83;102860.66;5052185;28;19936;-71
2021/04/23 00:50:26;;;;;;;;;;;;;;;5.45;62.77;102857.19;5051686;28;20648;-71
2021/04/23 00:52:52;;;;;;;;;;;;;;;5.41;62.68;102856.47;5057412;28;19932;-71
2021/04/23 00:55:18;;;;;;;;;;;;;;;5.38;63.01;102856.59;5043555;28;19928;-71
2021/04/23 00:57:44;;;;;;;;;;;;;;;5.35;63.25;102860.19;5058982;28;19928;-71
2021/04/23 01:00:10;;;;;;;;;;;;;;;5.32;62.86;102852.47;5043974;28;19936;-71
2021/04/23 01:02:36;;;;;;;;;;;;;;;5.30;63.39;102859.50;5055831;28;19974;-71
2021/04/23 01:05:02;;;;;;;;;;;;;;;5.24;62.94;102854.56;5046647;28;19928;-71
2021/04/23 01:07:28;;;;;;;;;;;;;;;5.24;62.82;102848.50;5057367;28;19993;-71
2021/04/23 01:09:54;;;;;;;;;;;;;;;5.24;62.64;102854.56;5054146;28;19937;-71
2021/04/23 01:12:20;;;;;;;;;;;;;;;5.21;63.24;102848.63;5052526;28;19950;-71
2021/04/23 01:14:47;;;;;;;;;;;;;;;5.20;63.01;102852.16;5052386;28;19932;-71
2021/04/23 01:17:13;;;;;;;;;;;;;;;5.21;62.11;102853.81;5052132;28;19932;-71
2021/04/23 01:19:39;;;;;;;;;;;;;;;5.11;63.06;102848.16;5050199;28;19932;-71
2021/04/23 01:22:05;;;;;;;;;;;;;;;5.08;63.46;102854.31;5048992;28;20425;-71
2021/04/23 01:24:31;;;;;;;;;;;;;;;5.05;63.81;102851.00;5048240;28;19929;-71
2021/04/23 01:26:57;;;;;;;;;;;;;;;5.00;63.35;102851.19;5058959;28;19935;-71
2021/04/23 01:29:24;;;;;;;;;;;;;;;5.00;63.94;102852.91;5038747;28;20464;-71
2021/04/23 01:31:52;;;;;;;;;;;;;;;4.95;63.59;102858.31;5057387;28;19936;-71
2021/04/23 01:34:45;;;;;;;;;;;;;;;4.91;64.02;102846.34;5050198;28;19932;-71
2021/04/23 01:37:13;;;;;;;;;;;;;;;4.86;64.36;102853.47;5051013;28;19929;-71
2021/04/23 01:39:40;;;;;;;;;;;;;;;4.78;64.47;102851.16;5039551;28;20023;-71
2021/04/23 01:42:07;;;;;;;;;;;;;;;4.80;64.11;102851.09;5058717;28;19932;-71
2021/04/23 01:44:34;;;;;;;;;;;;;;;4.76;63.80;102860.75;5058361;28;19928;-71
2021/04/23 01:47:01;;;;;;;;;;;;;;;4.70;64.04;102861.00;5052144;28;19928;-71
2021/04/23 01:49:27;;;;;;;;;;;;;;;4.69;63.74;102857.56;5054871;28;20015;-71
2021/04/23 01:51:58;;;;;;;;;;;;;;;4.64;63.94;102856.88;5049218;28;19978;-71
2021/04/23 01:54:25;;;;;;;;;;;;;;;4.61;64.12;102861.38;5057701;28;20371;-71
2021/04/23 01:56:51;;;;;;;;;;;;;;;4.62;64.25;102858.69;5048137;28;19955;-71
2021/04/23 01:59:18;;;;;;;;;;;;;;;4.59;64.21;102860.53;5043656;28;19936;-71
2021/04/23 02:01:44;;;;;;;;;;;;;;;4.59;64.50;102858.81;5050809;28;20445;-71
2021/04/23 02:04:12;;;;;;;;;;;;;;;4.61;63.87;102867.41;5047539;28;20787;-70
2021/04/23 02:06:39;;;;;;;;;;;;;;;4.56;63.91;102869.31;5051101;28;20394;-70
2021/04/23 02:09:06;;;;;;;;;;;;;;;4.52;64.33;102871.19;5052657;28;19929;-70
2021/04/23 02:11:33;;;;;;;;;;;;;;;4.45;64.65;102866.25;5061290;28;19933;-70
2021/04/23 02:13:59;;;;;;;;;;;;;;;4.41;64.40;102877.66;5050466;28;19932;-70
2021/04/23 02:16:25;;;;;;;;;;;;;;;4.38;64.87;102877.81;5057127;28;19958;-70
2021/04/23 02:18:52;;;;;;;;;;;;;;;4.37;64.78;102879.53;5055569;28;20420;-70
2021/04/23 02:21:19;;;;;;;;;;;;;;;4.34;65.04;102877.06;5057928;28;20049;-70
2021/04/23 02:23:46;;;;;;;;;;;;;;;4.33;64.95;102875.34;5056769;28;19929;-70
2021/04/23 02:26:13;;;;;;;;;;;;;;;4.29;65.95;102884.16;5051044;28;19951;-71
2021/04/23 02:28:39;;;;;;;;;;;;;;;4.30;65.99;102880.69;5059848;28;19929;-70
2021/04/23 02:31:13;;;;;;;;;;;;;;;4.29;65.72;102872.03;5048835;28;19928;-70
2021/04/23 02:33:40;;;;;;;;;;;;;;;4.27;64.95;102876.44;5053699;28;20743;-70
2021/04/23 02:36:07;;;;;;;;;;;;;;;4.27;65.01;102885.97;5052559;28;19940;-70
2021/04/23 02:38:33;;;;;;;;;;;;;;;4.26;65.08;102887.72;5058644;28;19978;-70
2021/04/23 02:40:59;;;;;;;;;;;;;;;4.22;65.14;102886.16;5063133;28;19928;-70
2021/04/23 02:43:30;;;;;;;;;;;;;;;4.15;65.49;102884.66;5044924;28;19932;-70
2021/04/23 02:45:57;;;;;;;;;;;;;;;4.13;65.32;102884.69;5056298;28;19976;-70
2021/04/23 02:48:24;;;;;;;;;;;;;;;4.09;65.89;102882.28;5039926;28;19994;-70
2021/04/23 02:50:53;;;;;;;;;;;;;;;4.05;66.36;102883.28;5062490;28;19975;-70
2021/04/23 02:53:19;;;;;;;;;;;;;;;3.95;66.29;102865.41;5052108;28;19933;-70
2021/04/23 02:55:45;;;;;;;;;;;;;;;4.07;65.74;102887.53;5060446;28;20441;-70
2021/04/23 02:58:15;;;;;;;;;;;;;;;4.06;65.86;102885.84;5053378;28;19929;-70
2021/04/23 03:00:43;;;;;;;;;;;;;;;4.07;66.16;102889.28;5051274;28;20027;-70
2021/04/23 03:03:12;;;;;;;;;;;;;;;4.07;65.60;102894.47;5059130;28;19928;-70
2021/04/23 03:05:39;;;;;;;;;;;;;;;4.06;64.88;102891.03;5051660;28;19986;-70
2021/04/23 03:08:06;;;;;;;;;;;;;;;4.01;65.47;102887.72;5055708;28;20318;-71
2021/04/23 03:10:34;;;;;;;;;;;;;;;4.00;65.05;102886.06;5054700;28;19928;-71
2021/04/23 03:13:05;;;;;;;;;;;;;;;3.95;65.72;102893.97;5049660;28;19936;-70
2021/04/23 03:15:31;;;;;;;;;;;;;;;3.90;65.30;102895.03;5057278;28;19982;-70
2021/04/23 03:17:57;;;;;;;;;;;;;;;3.91;65.10;102892.41;5042924;28;19975;-70
2021/04/23 03:20:24;;;;;;;;;;;;;;;3.87;66.02;102897.75;5056502;28;20485;-70
2021/04/23 03:22:51;;;;;;;;;;;;;;;3.84;67.08;102900.44;5045508;28;19946;-70
2021/04/23 03:25:17;;;;;;;;;;;;;;;3.89;66.44;102904.59;5052953;28;19928;-70
2021/04/23 03:27:43;;;;;;;;;;;;;;;3.88;68.34;102897.72;5053802;28;19929;-71
2021/04/23 03:30:11;;;;;;;;;;;;;;;3.89;68.31;102898.53;5059042;28;19940;-70
2021/04/23 03:32:37;;;;;;;;;;;;;;;3.90;67.76;102902.81;5051932;28;20360;-70
2021/04/23 03:35:04;;;;;;;;;;;;;;;3.93;68.89;102910.53;5051714;28;19935;-70
2021/04/23 03:37:30;;;;;;;;;;;;;;;3.95;68.82;102909.56;5060955;28;19928;-70
2021/04/23 03:39:56;;;;;;;;;;;;;;;3.98;69.18;102903.44;5048702;28;20388;-71
2021/04/23 03:42:22;;;;;;;;;;;;;;;3.99;69.64;102904.28;5051652;28;19939;-70
2021/04/23 03:44:48;;;;;;;;;;;;;;;3.99;69.35;102910.31;5057508;28;19939;-70
2021/04/23 03:47:14;;;;;;;;;;;;;;;4.01;69.13;102908.50;5050847;28;20371;-70
2021/04/23 03:49:40;;;;;;;;;;;;;;;4.01;69.92;102910.25;5055738;28;19928;-70
2021/04/23 03:52:06;;;;;;;;;;;;;;;3.99;69.20;102912.91;5044485;28;19968;-70
2021/04/23 03:54:33;;;;;;;;;;;;;;;4.04;69.37;102913.63;5054686;28;19935;-70
2021/04/23 03:56:59;;;;;;;;;;;;;;;4.09;68.98;102916.03;5052310;28;19928;-71
2021/04/23 03:59:26;;;;;;;;;;;;;;;4.05;68.93;102915.28;5056906;28;19932;-70
2021/04/23 04:01:52;;;;;;;;;;;;;;;4.06;68.50;102917.00;5063633;28;20930;-70
2021/04/23 04:04:18;;;;;;;;;;;;;;;4.08;68.33;102909.16;5048011;28;19933;-70
2021/04/23 04:06:46;;;;;;;;;;;;;;;4.04;68.44;102908.41;5058001;28;19928;-70
2021/04/23 04:09:12;;;;;;;;;;;;;;;3.99;68.32;102905.13;5047348;28;19978;-70
2021/04/23 04:11:38;;;;;;;;;;;;;;;3.99;67.68;102906.88;5061367;28;20053;-70
2021/04/23 04:14:04;;;;;;;;;;;;;;;3.94;67.86;102912.22;5048629;28;19958;-70
2021/04/23 04:16:31;;;;;;;;;;;;;;;3.92;67.23;102916.59;5055948;28;20364;-71
2021/04/23 04:18:57;;;;;;;;;;;;;;;3.90;66.87;102905.41;5056720;28;19951;-71
2021/04/23 04:21:24;;;;;;;;;;;;;;;3.87;67.31;102910.72;5050125;28;20824;-70
2021/04/23 04:23:50;;;;;;;;;;;;;;;3.83;66.56;102909.97;5057024;28;19977;-70
2021/04/23 04:26:16;;;;;;;;;;;;;;;3.84;66.55;102913.41;5045210;28;20276;-70
2021/04/23 04:28:42;;;;;;;;;;;;;;;3.77;66.60;102912.78;5054137;28;19933;-70
2021/04/23 04:31:09;;;;;;;;;;;;;;;3.78;66.54;102931.81;5047989;28;20403;-70
2021/04/23 04:33:51;;;;;;;;;;;;;;;3.68;68.43;102931.25;5053034;28;19932;-71
2021/04/23 04:36:17;;;;;;;;;;;;;;;3.66;69.25;102931.28;5048016;28;19986;-71
2021/04/23 04:38:43;;;;;;;;;;;;;;;3.69;68.63;102932.97;5048348;28;19932;-71
2021/04/23 04:41:10;;;;;;;;;;;;;;;3.67;69.34;102930.41;5062198;28;19936;-71
2021/04/23 04:43:36;;;;;;;;;;;;;;;3.71;69.55;102929.41;5051649;28;19982;-70
2021/04/23 04:46:02;;;;;;;;;;;;;;;3.78;69.71;102937.00;5056119;28;19932;-71
2021/04/23 04:48:28;;;;;;;;;;;;;;;3.81;70.36;102942.94;5042393;28;19932;-72
2021/04/23 04:50:56;;;;;;;;;;;;;;;3.88;69.71;102946.16;5046237;28;19929;-71
2021/04/23 04:53:23;;;;;;;;;;;;;;;3.92;69.59;102946.03;5052299;28;20644;-71
2021/04/23 04:55:50;;;;;;;;;;;;;;;3.97;70.69;102953.66;5047854;28;19986;-71
2021/04/23 04:58:18;;;;;;;;;;;;;;;4.06;70.30;102963.75;5053315;28;19997;-71
2021/04/23 05:00:45;;;;;;;;;;;;;;;4.09;71.06;102955.84;5050756;28;19940;-71
2021/04/23 05:03:12;;;;;;;;;;;;;;;4.21;70.55;102964.97;5049563;28;20020;-72
2021/04/23 05:05:39;;;;;;;;;;;;;;;4.26;70.67;102967.44;5051025;28;20416;-71
2021/04/23 05:08:05;;;;;;;;;;;;;;;4.33;70.96;102967.16;5048304;28;19940;-71
2021/04/23 05:10:31;;;;;;;;;;;;;;;4.42;70.52;102973.78;5056664;28;19932;-71
2021/04/23 05:12:57;;;;;;;;;;;;;;;4.45;71.31;102975.41;5044367;28;19932;-70
2021/04/23 05:15:23;;;;;;;;;;;;;;;4.54;70.25;102980.28;5052642;28;19929;-71
2021/04/23 05:17:49;;;;;;;;;;;;;;;4.66;70.77;102986.81;5044726;28;19932;-71
2021/04/23 05:20:17;;;;;;;;;;;;;;;4.75;70.79;102991.69;5059740;28;19987;-71
2021/04/23 05:22:43;;;;;;;;;;;;;;;4.84;70.23;102999.16;5046149;28;19968;-72
2021/04/23 05:25:14;;;;;;;;;;;;;;;4.92;70.26;102999.72;5059837;28;19966;-72
2021/04/23 05:27:40;;;;;;;;;;;;;;;5.03;69.75;103009.72;5055868;28;19950;-72
2021/04/23 05:30:12;;;;;;;;;;;;;;;5.08;69.84;103004.38;5051703;28;19936;-70
2021/04/23 05:32:38;;;;;;;;;;;;;;;5.14;70.08;103015.38;5051889;28;19929;-70
2021/04/23 05:35:06;;;;;;;;;;;;;;;5.17;69.83;103004.00;5048574;28;20072;-70
2021/04/23 05:37:33;;;;;;;;;;;;;;;5.25;69.63;103011.53;5054309;28;20519;-72
2021/04/23 05:39:59;;;;;;;;;;;;;;;5.34;69.50;103006.81;5051640;28;19932;-72
2021/04/23 05:42:25;;;;;;;;;;;;;;;5.40;69.62;103020.50;5054403;28;19933;-71
2021/04/23 05:44:51;;;;;;;;;;;;;;;5.45;69.96;103015.97;5061400;28;19997;-71
2021/04/23 05:47:17;;;;;;;;;;;;;;;5.53;69.47;103016.53;5045225;28;20778;-71
2021/04/23 05:49:43;;;;;;;;;;;;;;;5.57;69.48;103019.84;5062531;28;19928;-71
2021/04/23 05:52:09;;;;;;;;;;;;;;;5.59;69.14;103023.25;5054558;28;19929;-71
2021/04/23 05:54:35;;;;;;;;;;;;;;;5.65;69.51;103018.66;5063094;28;19935;-71
2021/04/23 05:57:02;;;;;;;;;;;;;;;5.72;69.18;103027.94;5051681;28;19998;-71
2021/04/23 05:59:29;;;;;;;;;;;;;;;5.81;69.13;103031.06;5059393;28;19954;-71
2021/04/23 06:01:54;;;;;;;;;;;;;;;5.89;68.61;103026.41;5060846;28;19937;-71
2021/04/23 06:04:20;;;;;;;;;;;;;;;5.93;68.99;103025.34;5052501;28;19981;-71
2021/04/23 06:06:46;;;;;;;;;;;;;;;5.90;68.21;103017.66;5059952;28;19929;-71
2021/04/23 06:09:12;;;;;;;;;;;;;;;6.01;68.42;103018.09;5057473;28;20384;-72
2021/04/23 06:11:40;;;;;;;;;;;;;;;6.07;68.74;103019.63;5061064;28;20524;-71
2021/04/23 06:14:06;;;;;;;;;;;;;;;6.07;68.16;103017.84;5056396;28;19968;-72
2021/04/23 06:16:32;;;;;;;;;;;;;;;6.20;68.13;103017.38;5056612;28;20453;-72
2021/04/23 06:18:58;;;;;;;;;;;;;;;6.26;67.87;103019.72;5055241;28;19929;-72
2021/04/23 06:21:24;;;;;;;;;;;;;;;6.28;67.10;103015.28;5038452;28;20311;-72
2021/04/23 06:23:50;;;;;;;;;;;;;;;6.42;68.17;103018.13;5061784;28;20024;-72
2021/04/23 06:26:17;;;;;;;;;;;;;;;6.49;67.58;103021.34;5073279;28;19928;-73
2021/04/23 06:28:45;;;;;;;;;;;;;;;6.56;67.82;103016.69;5081417;28;19936;-72
2021/04/23 06:31:12;;;;;;;;;;;;;;;6.53;67.49;103015.94;5082212;28;20011;-72
2021/04/23 06:33:45;;;;;;;;;;;;;;;6.54;67.21;103022.81;5074298;28;20433;-72
2021/04/23 06:36:12;;;;;;;;;;;;;;;6.58;66.43;103020.09;5059147;28;19928;-72
2021/04/23 06:38:38;;;;;;;;;;;;;;;6.66;66.78;103018.00;5071973;28;20775;-71
2021/04/23 06:41:05;;;;;;;;;;;;;;;6.75;66.80;103022.81;5081136;28;19928;-71
2021/04/23 06:43:30;;;;;;;;;;;;;;;6.82;65.98;103029.47;5072067;28;20474;-71
2021/04/23 06:45:56;;;;;;;;;;;;;;;6.89;65.38;103025.66;5067825;28;19934;-71
2021/04/23 06:48:23;;;;;;;;;;;;;;;6.96;65.50;103022.75;5077221;28;20442;-72
2021/04/23 06:50:49;;;;;;;;;;;;;;;7.03;65.63;103027.63;5076651;28;19931;-72
2021/04/23 06:53:17;;;;;;;;;;;;;;;7.14;65.39;103024.56;5056793;28;19936;-71
2021/04/23 06:55:43;;;;;;;;;;;;;;;7.23;64.94;103018.91;5077401;28;19943;-71
2021/04/23 06:58:10;;;;;;;;;;;;;;;7.33;64.44;103020.19;5082294;28;19928;-72
2021/04/23 07:00:37;;;;;;;;;;;;;;;7.41;64.15;103027.66;5076483;28;20390;-72
2021/04/23 07:03:04;;;;;;;;;;;;;;;7.49;63.11;103029.91;5079455;28;19928;-72
2021/04/23 07:05:31;;;;;;;;;;;;;;;7.64;63.97;103028.31;5073034;28;20033;-72
2021/04/23 07:07:58;;;;;;;;;;;;;;;7.75;63.30;103025.22;5075789;28;19932;-71
2021/04/23 07:10:25;;;;;;;;;;;;;;;7.85;63.31;103029.06;5065475;28;20585;-72
2021/04/23 07:12:51;;;;;;;;;;;;;;;8.01;62.12;103032.59;5073397;28;19932;-72
2021/04/23 07:15:19;;;;;;;;;;;;;;;8.11;60.99;103031.25;5083980;28;19998;-72
2021/04/23 07:17:46;;;;;;;;;;;;;;;8.23;61.08;103034.16;5050873;28;20394;-71
2021/04/23 07:20:30;;;;;;;;;;;;;;;8.28;59.40;103038.25;5073467;28;20029;-71
2021/04/23 07:22:57;;;;;;;;;;;;;;;8.37;59.61;103038.69;5074269;28;19971;-72
2021/04/23 07:25:23;;;;;;;;;;;;;;;8.40;58.40;103042.00;5083206;28;19935;-72
2021/04/23 07:27:50;;;;;;;;;;;;;;;8.45;58.14;103041.81;5061469;28;19936;-71
2021/04/23 07:30:18;;;;;;;;;;;;;;;8.47;57.83;103037.34;5028464;28;19934;-71
2021/04/23 07:32:45;;;;;;;;;;;;;;;8.54;57.07;103037.88;5068943;27;20595;-71
2021/04/23 07:35:11;;;;;;;;;;;;;;;8.65;58.09;103044.25;5074394;28;20469;-71
2021/04/23 07:37:37;;;;;;;;;;;;;;;8.69;56.56;103039.72;5060183;28;19999;-72
2021/04/23 07:40:05;;;;;;;;;;;;;;;8.75;55.91;103039.38;5078699;28;19923;-72
2021/04/23 07:42:31;;;;;;;;;;;;;;;8.82;57.04;103046.00;5061492;28;19927;-71
2021/04/23 07:44:57;;;;;;;;;;;;;;;8.86;56.36;103049.28;5082482;28;19977;-71
2021/04/23 07:47:23;;;;;;;;;;;;;;;8.95;56.38;103046.19;5062731;27;19939;-72
2021/04/23 07:49:49;;;;;;;;;;;;;;;9.07;56.05;103050.75;5079909;28;19932;-71
2021/04/23 07:52:17;;;;;;;;;;;;;;;9.16;56.05;103048.59;5053655;28;20367;-72
2021/04/23 07:54:43;;;;;;;;;;;;;;;9.19;56.32;103054.53;5058370;28;19930;-71
2021/04/23 07:57:09;;;;;;;;;;;;;;;9.18;57.05;103046.75;5067370;27;20018;-71
2021/04/23 07:59:39;;;;;;;;;;;;;;;9.18;56.98;103049.34;5067190;28;19971;-72
2021/04/23 08:02:06;;;;;;;;;;;;;;;9.14;57.15;103053.91;5045675;28;19923;-72
2021/04/23 08:04:34;;;;;;;;;;;;;;;9.05;56.77;103051.78;5054623;27;19946;-72
2021/04/23 08:07:00;;;;;;;;;;;;;;;9.02;56.84;103052.78;5072169;28;20030;-72
2021/04/23 08:09:27;;;;;;;;;;;;;;;9.06;55.68;103053.47;5073650;28;19930;-71
2021/04/23 08:11:52;;;;;;;;;;;;;;;9.17;55.83;103051.09;5069467;28;19963;-72
2021/04/23 08:14:19;;;;;;;;;;;;;;;9.10;53.89;103052.38;5064109;28;19928;-71
2021/04/23 08:16:53;;;;;;;;;;;;;;;9.17;54.17;103051.09;5075449;28;19924;-71
2021/04/23 08:19:19;;;;;;;;;;;;;;;9.22;54.17;103054.34;5051615;28;20457;-71
2021/04/23 08:21:45;;;;;;;;;;;;;;;9.31;54.22;103063.50;5066780;28;19932;-71
2021/04/23 08:24:11;;;;;;;;;;;;;;;9.71;53.93;103058.66;5079623;28;19924;-71
2021/04/23 08:26:38;;;;;;;;;;;;;;;10.16;51.59;103051.72;5044208;28;19923;-72
2021/04/23 08:29:04;;;;;;;;;;;;;;;10.56;52.04;103054.63;5064110;28;19947;-71
2021/04/23 08:31:31;;;;;;;;;;;;;;;10.88;50.98;103051.88;5066408;27;20486;-71
2021/04/23 08:33:57;;;;;;;;;;;;;;;11.36;50.35;103057.63;5078978;28;19974;-71
2021/04/23 08:36:23;;;;;;;;;;;;;;;11.27;49.38;103066.94;5045116;28;20142;-72
2021/04/23 08:38:49;;;;;;;;;;;;;;;11.15;48.92;103054.56;5064073;28;20002;-71
2021/04/23 08:41:15;;;;;;;;;;;;;;;11.06;48.71;103053.34;5065550;28;20049;-72
2021/04/23 08:43:41;;;;;;;;;;;;;;;10.95;48.99;103058.41;5066440;28;19928;-73
2021/04/23 08:46:07;;;;;;;;;;;;;;;10.93;49.68;103049.78;5071455;27;20415;-72
2021/04/23 08:48:33;;;;;;;;;;;;;;;11.38;49.40;103050.50;5073984;28;19935;-71
2021/04/23 08:51:00;;;;;;;;;;;;;;;11.57;48.76;103049.34;5063652;27;19962;-72
2021/04/23 08:53:27;;;;;;;;;;;;;;;11.36;47.50;103055.00;5074537;28;19951;-71
2021/04/23 08:55:56;;;;;;;;;;;;;;;11.17;47.97;103044.81;5066663;28;19985;-71
2021/04/23 08:58:23;;;;;;;;;;;;;;;11.11;48.89;103041.72;5081736;28;19924;-71
2021/04/23 09:00:49;;;;;;;;;;;;;;;11.02;47.51;103043.16;5038002;28;20424;-72
2021/04/23 09:03:24;;;;;;;;;;;;;;;10.78;48.39;103043.72;5078618;28;19932;-71
2021/04/23 09:06:11;;;;;;;;;;;;;;;10.67;49.47;103033.84;5064074;28;19947;-71
2021/04/23 09:08:53;;;;;;;;;;;;;;;11.19;48.74;103042.06;5069146;28;20032;-71
2021/04/23 09:11:21;;;;;;;;;;;;;;;11.63;47.78;103035.78;5059137;27;19958;-71
2021/04/23 09:13:56;;;;;;;;;;;;;;;12.02;47.26;103026.28;5063093;28;20038;-71
2021/04/23 09:16:23;;;;;;;;;;;;;;;12.51;45.76;103027.38;5047506;28;19981;-71
2021/04/23 09:18:51;;;;;;;;;;;;;;;12.21;44.03;103031.13;5074942;28;19935;-71
2021/04/23 09:21:17;;;;;;;;;;;;;;;12.07;45.64;103037.31;5053897;28;19928;-71
2021/04/23 09:23:53;;;;;;;;;;;;;;;11.80;45.10;103039.94;5076201;28;20017;-71
2021/04/23 09:26:30;;;;;;;;;;;;;;;12.04;45.38;103034.91;5066625;28;19928;-71
2021/04/23 09:28:57;;;;;;;;;;;;;;;12.33;45.00;103034.72;5074985;28;21351;-71
2021/04/23 09:31:30;;;;;;;;;;;;;;;12.63;44.78;103031.81;5049082;28;19931;-71
2021/04/23 09:33:56;;;;;;;;;;;;;;;13.16;45.58;103028.97;5070439;28;19927;-72
2021/04/23 09:36:30;;;;;;;;;;;;;;;13.32;43.33;103050.69;5052235;28;20524;-71
2021/04/23 09:39:06;;;;;;;;;;;;;;;13.04;44.31;103046.50;5079384;28;19993;-71
2021/04/23 09:41:32;;;;;;;;;;;;;;;12.77;43.12;103033.47;5063624;28;20618;-72
2021/04/23 09:43:58;;;;;;;;;;;;;;;12.81;43.73;103037.56;5064292;28;19962;-71
2021/04/23 09:46:37;;;;;;;;;;;;;;;12.97;43.10;103032.91;5062773;27;19924;-72
2021/04/23 09:49:16;;;;;;;;;;;;;;;13.18;43.04;103034.97;5069898;28;19973;-71
2021/04/23 09:51:42;;;;;;;;;;;;;;;13.51;42.89;103026.47;5063952;27;19927;-71
2021/04/23 09:54:15;;;;;;;;;;;;;;;13.58;41.85;103027.72;5079368;28;19976;-72
2021/04/23 09:56:41;;;;;;;;;;;;;;;13.82;41.95;103017.16;5070020;28;20857;-72
2021/04/23 09:59:14;;;;;;;;;;;;;;;13.76;40.60;103017.59;5072428;28;19977;-72
2021/04/23 10:01:53;;;;;;;;;;;;;;;13.94;41.97;103014.56;5072591;28;19924;-72
2021/04/23 10:04:24;;;;;;;;;;;;;;;14.12;41.24;103021.06;5069656;28;20041;-73
2021/04/23 10:07:06;;;;;;;;;;;;;;;14.30;41.77;103023.28;5074745;28;19924;-73
2021/04/23 10:09:33;;;;;;;;;;;;;;;14.14;40.81;103013.88;5051529;28;20557;-72
2021/04/23 10:11:59;;;;;;;;;;;;;;;14.49;40.92;103015.63;5074457;28;19977;-73
2021/04/23 10:14:25;;;;;;;;;;;;;;;14.62;39.84;103018.16;5059085;28;19927;-73
2021/04/23 10:16:58;;;;;;;;;;;;;;;14.84;38.32;103020.00;5072485;28;20390;-72
2021/04/23 10:19:25;;;;;;;;;;;;;;;15.05;38.24;103011.31;5068124;28;20398;-72
2021/04/23 10:21:51;;;;;;;;;;;;;;;15.08;38.28;103009.28;5068226;28;19931;-73
2021/04/23 10:24:19;;;;;;;;;;;;;;;15.17;38.55;103013.81;5076763;28;20570;-73
2021/04/23 10:27:51;;;;;;;12.52;3.15;;;;;;;15.61;38.86;102998.78;5053990;27;20403;-72
2021/04/23 10:30:20;;;;;;;9.13;2.50;;;;;;;15.71;37.46;102998.84;5003590;28;20052;-72
2021/04/23 10:33:08;;;;;;;8.52;3.00;;;;;;;16.00;37.34;102999.09;5009138;28;20049;-71
2021/04/23 10:35:35;;;;;;;10.70;3.40;;;;;;;15.93;35.90;102994.44;5006456;28;20061;-72
2021/04/23 10:38:07;;;;;;;8.23;2.97;;;;;;;15.72;36.16;102989.09;5014727;28;20049;-71
2021/04/23 10:40:34;;;;;;;13.77;3.83;;;;;;;16.07;36.47;102995.94;5020926;28;20139;-71
2021/04/23 10:43:08;;;;;;;11.38;3.42;;;;;;;16.17;37.02;102992.38;5014833;28;20102;-71
2021/04/23 10:45:40;;;;;;;10.48;3.20;;;;;;;16.51;36.33;102997.44;5029742;28;20045;-72
2021/04/23 10:48:12;;;;;;;13.63;3.72;;;;;;;16.06;35.51;102984.50;5031533;28;20560;-71
2021/04/23 10:50:38;;;;;;;9.85;3.28;;;;;;;16.18;35.49;102982.63;5030772;28;20198;-71
2021/04/23 10:53:07;;;;;;;9.93;3.30;;;;;;;16.15;35.68;102983.75;5036627;28;20080;-71
2021/04/23 10:55:50;;;;;;;8.20;3.22;;;;;;;16.44;36.10;102985.69;5032969;28;20229;-71
2021/04/23 10:58:26;;;;;;;13.35;4.07;;;;;;;16.38;35.44;102975.63;5023995;28;20114;-71
2021/04/23 11:00:59;;;;;;;16.73;3.88;;;;;;;16.60;34.80;102967.50;5031381;28;20151;-71
2021/04/23 11:03:33;;;;;;;11.85;4.88;;;;;;;16.71;35.31;102966.56;5030657;28;20045;-72
2021/04/23 11:06:14;;;;;;;11.20;3.42;;;;;;;16.87;35.86;102971.38;5038560;28;20348;-72
2021/04/23 11:08:59;;;;;;;16.23;3.60;;;;;;;16.61;35.07;102968.34;5021329;28;20115;-72
2021/04/23 11:12:21;;;;;;;11.13;3.63;;;;;;;16.89;34.82;102964.13;5026260;28;20092;-72
2021/04/23 11:14:47;;;;;;;9.05;2.70;;;;;;;17.36;34.48;102955.53;5007087;28;20130;-72
2021/04/23 11:17:19;;;;;;;11.15;3.45;;;;;;;17.74;34.28;102953.84;5034258;28;20099;-72
2021/04/23 11:19:48;;;;;;;13.65;3.60;;;;;;;18.00;34.12;102953.28;5032626;28;20049;-72
2021/04/23 11:22:18;;;;;;;9.23;3.40;;;;;;;17.86;33.09;102949.25;5039968;28;20060;-73
2021/04/23 11:24:59;;;;;;;13.63;3.55;;;;;;;17.86;33.14;102957.22;5032206;28;20049;-74
2021/04/23 11:28:00;;;;;;;12.75;3.30;;;;;;;18.14;31.93;102943.00;4999501;28;20057;-74
2021/04/23 11:30:27;;;;;;;12.10;3.15;;;;;;;18.21;32.08;102934.47;5000462;28;20053;-73
2021/04/23 11:32:55;;;;;;;8.98;2.97;;;;;;;18.17;32.66;102936.59;5018786;28;20079;-72
2021/04/23 11:35:26;;;;;;;10.43;3.47;;;;;;;18.01;32.84;102947.78;5009399;28;22717;-72
2021/04/23 11:37:56;;;;;;;14.25;3.25;;;;;;;17.81;32.79;102946.16;5001505;28;20147;-73
2021/04/23 11:40:26;;;;;;;8.30;2.65;;;;;;;17.74;33.82;102946.72;4995891;28;22231;-72
2021/04/23 11:42:57;;;;;;;7.97;2.90;;;;;;;17.61;32.83;102946.16;5002790;28;20072;-72
2021/04/23 11:45:25;;;;;;;10.52;3.22;;;;;;;17.45;32.96;102946.75;5000250;28;20214;-72
2021/04/23 11:47:53;;;;;;;;;;;;;;;17.38;33.67;102946.44;5005721;28;20123;-73
2021/04/23 11:50:43;;;;;;;12.55;3.20;;;;;;;17.40;33.64;102946.31;5001067;28;19928;-72
2021/04/23 11:53:11;;;;;;;11.23;2.90;;;;;;;17.46;32.44;102937.78;4986852;28;20143;-73
2021/04/23 11:55:38;;;;;;;13.27;3.47;;;;;;;17.28;34.81;102945.63;5002206;28;20115;-73
2021/04/23 11:58:10;;;;;;;10.85;3.35;;;;;;;17.23;35.62;102945.22;5014532;28;20559;-71
2021/04/23 12:00:39;;;;;;;13.70;3.92;;;;;;;17.52;34.50;102947.00;5044823;28;20052;-72
2021/04/23 12:03:06;;;;;;;12.95;3.75;;;;;;;17.41;35.96;102940.03;5040227;28;20123;-72
2021/04/23 12:05:38;;;;;;;14.77;3.60;;;;;;;17.18;34.57;102934.16;5025323;28;20491;-72
2021/04/23 12:08:07;;;;;;;17.55;6.68;;;;;;;17.20;35.52;102937.53;5039393;28;20067;-72
2021/04/23 12:10:36;;;;;;;22.20;6.82;;;;;;;17.48;35.03;102927.03;5037195;28;20052;-72
2021/04/23 12:13:09;;;;;;;18.67;4.43;;;;;;;17.88;35.03;102926.06;5039098;28;20234;-72
2021/04/23 12:15:37;;;;;;;11.98;3.95;;;;;;;18.12;34.10;102912.28;5036157;28;20504;-72
2021/04/23 12:18:05;;;;;;;11.00;4.17;;;;;;;18.41;33.85;102906.03;5025976;28;20041;-72
2021/04/23 12:20:40;;;;;;;11.32;3.58;;;;;;;18.86;32.25;102903.38;5034254;28;20266;-72
2021/04/23 12:23:11;;;;;;;11.32;3.90;;;;;;;18.87;33.05;102918.34;5035969;28;20048;-72
2021/04/23 12:25:40;;;;;;;14.50;4.07;;;;;;;18.69;32.09;102914.81;5042704;28;20100;-72
2021/04/23 12:28:27;;;;;;;11.82;3.88;;;;;;;18.55;32.34;102913.47;5038664;28;20087;-72
2021/04/23 12:31:04;;;;;;;18.17;4.25;;;;;;;18.09;32.43;102909.91;5021100;28;20063;-72
2021/04/23 12:33:55;;;;;;;16.27;4.30;;;;;;;17.69;33.76;102911.78;5034201;28;20049;-72
2021/04/23 12:36:33;;;;;;;15.52;4.53;;;;;;;17.60;34.65;102915.28;5036729;28;20122;-72